Sipu Muin — CHCGA — position and weather

sailwx.info

Track history (hours):
 
Tides and Currents Weather Stations Pressure Air Temp Water Temp Dewpoint Dewpoint Depression Visibility Wind Speed Wind Dir Waves Ship Positions

Sipu Muin

Last reported at 2015-Mar-24 16:20 UTC. Time now 2015-Mar-27 10:17 UTC.
Position N 46°17' W 072°42'.

Type: High speed craft. MMSI: 316001988.

Date/timePositionNaut miles runAvg speedWind from/ knotsBaromVisibWave heightAir tempDewpointWater temp
2015-Mar-24 16:20N 46°17' W 072°42'5 6.3
2015-Mar-24 15:33N 46°18' W 072°35'  
2015-Mar-19 21:29N 46°19' W 072°34'910.3
2015-Mar-19 20:34N 46°15' W 072°47'6 4.7
2015-Mar-19 19:20N 46°12' W 072°54'0 0.1
2015-Mar-19 18:07N 46°12' W 072°54'1 2.5
2015-Mar-19 17:31N 46°11' W 072°56'1 0.3
2015-Mar-19 15:26N 46°11' W 072°55'6 6.5
2015-Mar-19 14:32N 46°15' W 072°48'10 0.6
2015-Mar-18 21:33N 46°19' W 072°34'2120.8
2015-Mar-18 20:33N 46°06' W 072°59'9 9.3
2015-Mar-18 19:34N 46°13' W 072°50'1 0.5
2015-Mar-18 17:27N 46°14' W 072°48'2 1.5
2015-Mar-18 16:23N 46°16' W 072°49'1 1.3
2015-Mar-18 15:33N 46°15' W 072°48'1 0.8
2015-Mar-18 14:33N 46°14' W 072°48'6 0.3
2015-Mar-17 17:33N 46°16' W 072°39'8 3.9
2015-Mar-17 15:33N 46°12' W 072°49'0 0.2
2015-Mar-17 14:33N 46°12' W 072°49'0 0.1
2015-Mar-17 13:25N 46°12' W 072°49'12 0.7
2015-Mar-16 20:33N 46°19' W 072°34'5 5.2
2015-Mar-16 19:33N 46°15' W 072°39'3 3.0
2015-Mar-16 18:33N 46°15' W 072°44'0 0.3
2015-Mar-16 17:33N 46°15' W 072°44'3 2.8
2015-Mar-16 16:24N 46°15' W 072°39'4 4.7
2015-Mar-16 15:33N 46°14' W 072°45'9 0.2
2015-Mar-14 19:23N 46°19' W 072°34'1012.4
2015-Mar-14 18:33N 46°15' W 072°48'1 0.6
2015-Mar-14 17:33N 46°15' W 072°47'2 2.0
2015-Mar-14 16:33N 46°16' W 072°45'  
Track history (hours):
 
Tides and Currents Weather Stations Pressure Air Temp Water Temp Dewpoint Dewpoint Depression Visibility Wind Speed Wind Dir Waves Ship Positions

Sipu Muin

Last reported at 2015-Mar-24 16:20 UTC. Time now 2015-Mar-27 10:17 UTC.
Position N 46°17' W 072°42'.

Type: High speed craft. MMSI: 316001988.

Date/timePositionNaut miles runAvg speedWind from/ knotsBaromVisibWave heightAir tempDewpointWater temp
2015-Mar-24 16:20N 46°17' W 072°42'5 6.3
2015-Mar-24 15:33N 46°18' W 072°35'  
2015-Mar-19 21:29N 46°19' W 072°34'910.3
2015-Mar-19 20:34N 46°15' W 072°47'6 4.7
2015-Mar-19 19:20N 46°12' W 072°54'0 0.1
2015-Mar-19 18:07N 46°12' W 072°54'1 2.5
2015-Mar-19 17:31N 46°11' W 072°56'1 0.3
2015-Mar-19 15:26N 46°11' W 072°55'6 6.5
2015-Mar-19 14:32N 46°15' W 072°48'10 0.6
2015-Mar-18 21:33N 46°19' W 072°34'2120.8
2015-Mar-18 20:33N 46°06' W 072°59'9 9.3
2015-Mar-18 19:34N 46°13' W 072°50'1 0.5
2015-Mar-18 17:27N 46°14' W 072°48'2 1.5
2015-Mar-18 16:23N 46°16' W 072°49'1 1.3
2015-Mar-18 15:33N 46°15' W 072°48'1 0.8
2015-Mar-18 14:33N 46°14' W 072°48'6 0.3
2015-Mar-17 17:33N 46°16' W 072°39'8 3.9
2015-Mar-17 15:33N 46°12' W 072°49'0 0.2
2015-Mar-17 14:33N 46°12' W 072°49'0 0.1
2015-Mar-17 13:25N 46°12' W 072°49'12 0.7
2015-Mar-16 20:33N 46°19' W 072°34'5 5.2
2015-Mar-16 19:33N 46°15' W 072°39'3 3.0
2015-Mar-16 18:33N 46°15' W 072°44'0 0.3
2015-Mar-16 17:33N 46°15' W 072°44'3 2.8
2015-Mar-16 16:24N 46°15' W 072°39'4 4.7
2015-Mar-16 15:33N 46°14' W 072°45'9 0.2
2015-Mar-14 19:23N 46°19' W 072°34'1012.4
2015-Mar-14 18:33N 46°15' W 072°48'1 0.6
2015-Mar-14 17:33N 46°15' W 072°47'2 2.0
2015-Mar-14 16:33N 46°16' W 072°45'  

Dump ship's entire track history